• Join FlightAware (Why Join?)
  • Login
  • US Flag 
05:00AM EDT


 

Airport Tracker/Info


-or-


 

Live Flight TrackerFlight Track Log ✈ EJA831 ✈ 2013-Dec-09 ✈ KPBI - KCRW

Flight Track Log - Related Links

Times and Time Zones

All times are in EST time to prevent confusion due to time zone crossing. See the EJA831 flight status page for this flight to view local times or setup timezone preferences in your user account.

Time Position Orientation Groundspeed Altitude Reporting Facility
EST Latitude Longitude Course Direction KTS MPH feet Rate Location/Type
12:05PM 26.7542 -80.0183 329° Northwest 287 330 6,700  Level Miami Center
12:06PM 26.7900 -80.1006 296° West 238 274 10,000 2,940 Climbing Miami Center
12:07PM 26.8172 -80.1922 288° West 265 305 12,600 1,920 Climbing Miami Center
12:08PM 26.8486 -80.2839 291° West 293 337 13,900 1,500 Climbing Miami Center
12:09PM 27.3736 -80.1741 329° Northwest  Level Estimated
12:09PM 26.9133 -80.3650 312° West 314 361 15,600  Level Miami Center
12:10PM 27.0000 -80.4072 337° Northwest 350 403 17,800 2,220 Climbing Miami Center
12:11PM 27.0908 -80.4472 339° North 345 397 20,100 1,740 Climbing Miami Center
12:12PM 27.1714 -80.4825 339° North 345 397 21,300 1,320 Climbing Miami Center
12:13PM 27.2644 -80.5253 338° Northwest 345 397 22,800 1,500 Climbing Miami Center
12:14PM 27.3594 -80.5678 338° Northwest 360 414 24,300 1,380 Climbing Miami Center
12:15PM 27.4564 -80.6131 337° Northwest 365 420 25,600 1,320 Climbing Miami Center
12:16PM 27.5553 -80.6561 339° North 370 426 27,000 1,320 Climbing Miami Center
12:17PM 27.6564 -80.7017 338° Northwest 370 426 28,300 1,320 Climbing Miami Center
12:18PM 27.7553 -80.7497 337° Northwest 380 437 29,700 1,620 Climbing Miami Center
12:19PM 27.8689 -80.7981 339° North 387 445 31,600 1,740 Climbing Miami Center
12:20PM 27.9658 -80.8414 338° Northwest 387 445 33,200 1,620 Climbing Miami Center
12:21PM 28.0628 -80.8825 339° North 381 438 34,900 1,800 Climbing Miami Center
12:22PM 28.1511 -80.9256 337° Northwest 369 425 36,800 1,380 Climbing Miami Center
12:23PM 28.2397 -80.9667 338° Northwest 354 407 37,700 1,020 Climbing Miami Center
12:24PM 28.3306 -81.0075 338° Northwest 354 407 38,900 1,440 Climbing Miami Center
12:25PM 28.4211 -81.0486 338° Northwest 349 402 40,600 960 Climbing Miami Center
12:26PM 28.5131 -81.0972 335° Northwest 354 407 41,000 180 Climbing Jacksonville Center
12:27PM 28.5950 -81.1333 339° North 349 402 41,000  Level Jacksonville Center
12:28PM 28.6914 -81.1767 338° Northwest 355 409 41,000  Level Jacksonville Center
12:29PM 28.7903 -81.2247 337° Northwest 369 425 41,000  Level Jacksonville Center
12:30PM 28.8911 -81.2706 338° Northwest 379 436 41,000  Level Jacksonville Center
12:31PM 28.9939 -81.3186 338° Northwest 390 449 41,000  Level Jacksonville Center
12:32PM 29.0947 -81.3647 338° Northwest 390 449 41,000  Level Jacksonville Center
12:33PM 29.1975 -81.4131 338° Northwest 395 455 41,000  Level Jacksonville Center
12:34PM 29.2961 -81.4614 337° Northwest 390 449 41,000  Level Jacksonville Center
12:35PM 29.3967 -81.5078 338° Northwest 390 449 41,000  Level Jacksonville Center
12:36PM 29.4997 -81.5564 338° Northwest 390 449 41,000  Level Jacksonville Center
12:37PM 29.6003 -81.6050 337° Northwest 395 455 41,000  Level Jacksonville Center
12:38PM 29.7031 -81.6517 338° Northwest 395 455 41,000  Level Jacksonville Center
12:39PM 29.8036 -81.7006 337° Northwest 395 455 41,000  Level Jacksonville Center
12:40PM 29.9044 -81.7472 338° Northwest 395 455 41,000  Level Jacksonville Center
12:41PM 30.0050 -81.7942 338° Northwest 395 455 41,000  Level Jacksonville Center
12:42PM 30.1119 -81.8408 339° North 395 455 41,000  Level Jacksonville Center
12:43PM 30.2186 -81.8781 343° North 400 460 41,000  Level Jacksonville Center
12:44PM 30.3397 -81.8697 North 415 478 41,000  Level Jacksonville Center
12:45PM 30.4606 -81.8539 North 415 478 41,000  Level Jacksonville Center
12:46PM 30.5983 -81.8378 North 431 496 41,000  Level Jacksonville Center
12:47PM 30.7194 -81.8294 North 441 507 41,000  Level Jacksonville Center
12:48PM 30.8383 -81.8425 355° North 436 502 41,000  Level Jacksonville Center
12:49PM 30.9575 -81.8558 355° North 436 502 41,000  Level Jacksonville Center
12:50PM 31.0767 -81.8689 355° North 431 496 41,000  Level Jacksonville Center
12:51PM 31.1936 -81.8797 355° North 416 479 41,000  Level Jacksonville Center
12:52PM 31.3128 -81.8956 354° North 423 487 41,000  Level Jacksonville Center
12:53PM 31.4300 -81.9089 354° North 424 488 41,000  Level Jacksonville Center
12:54PM 31.5386 -81.9200 355° North 432 497 41,000  Level Jacksonville Center
12:55PM 31.6703 -81.9356 354° North 432 497 41,000  Level Jacksonville Center
12:56PM 31.7789 -81.9492 354° North 432 497 41,000  Level Jacksonville Center
12:57PM 31.9106 -81.9600 356° North 427 491 41,000  Level Jacksonville Center
12:58PM 32.0275 -81.9761 353° North 427 491 41,000  Level Jacksonville Center
01:00PM 32.2619 -82.0003 355° North 439 505 41,000  Level Atlanta Center
01:01PM 32.3811 -82.0147 354° North 439 505 41,000  Level Atlanta Center
01:02PM 32.5003 -82.0267 355° North 434 499 41,000  Level Atlanta Center
01:03PM 32.6194 -82.0389 355° North 429 494 41,000  Level Atlanta Center
01:04PM 32.7261 -82.0486 356° North 424 488 41,000  Level Atlanta Center
01:05PM 32.8472 -82.0483 360° North 424 488 41,000  Level Atlanta Center
01:06PM 32.9681 -82.0408 North 424 488 41,000  Level Atlanta Center
01:07PM 33.0911 -82.0306 North 429 494 41,000  Level Atlanta Center
01:08PM 33.2100 -82.0228 North 429 494 41,000  Level Atlanta Center
01:09PM 33.3308 -82.0100 North 429 494 41,000 420 Level Atlanta Center
01:10PM 33.4497 -81.9997 North 429 494 41,900 900 Climbing Atlanta Center
01:11PM 33.5642 -81.9919 North 417 480 42,900 540 Climbing Atlanta Center
01:12PM 33.6811 -81.9817 North 411 473 43,000  Climbing Atlanta Center
01:13PM 33.7978 -81.9739 North 411 473 43,000  Level Atlanta Center
01:14PM 33.9186 -81.9636 North 417 480 43,000  Level Atlanta Center
01:15PM 34.0542 -81.9528 North 433 498 43,000  Level Atlanta Center
01:16PM 34.1772 -81.9447 North 433 498 43,000  Level Atlanta Center
01:17PM 34.3000 -81.9342 North 438 504 43,000  Level Atlanta Center
01:18PM 34.4211 -81.9261 North 438 504 43,000  Level Atlanta Center
01:19PM 34.5439 -81.9153 North 438 504 43,000 -480 Level Atlanta Center
01:20PM 34.6628 -81.9125 North 438 504 42,100 -960 Descending Atlanta Center
01:21PM 34.7836 -81.9017 North 433 498 41,100 -1,080 Descending Atlanta Center
01:22PM 34.9006 -81.8961 North 428 493 40,000 -1,080 Descending Atlanta Center
01:23PM 35.0192 -81.8856 North 422 486 39,000 -1,140 Descending Atlanta Center
01:24PM 35.1381 -81.8747 North 422 486 37,800 -1,380 Descending Atlanta Center
01:25PM 35.2608 -81.8639 North 422 486 36,300 -1,260 Descending Atlanta Center
01:26PM 35.3817 -81.8531 North 427 491 35,300 -660 Descending Atlanta Center
01:27PM 35.5047 -81.8447 North 427 491 35,000 -480 Descending Atlanta Center
01:28PM 35.6317 -81.8336 North 442 509 34,400 -1,200 Descending Atlanta Center
01:29PM 35.7628 -81.8200 North 452 520 32,700 -1,500 Descending Atlanta Center
01:30PM 35.8942 -81.8086 North 458 527 31,400 -900 Descending Atlanta Center
01:31PM 36.0233 -81.8000 North 464 534 31,000 -420 Descending Atlanta Center
01:32PM 36.1544 -81.7861 North 464 534 30,600 -600 Descending Atlanta Center
01:33PM 36.2856 -81.7747 North 464 534 29,900 -1,200 Descending Atlanta Center
01:34PM 36.4169 -81.7658 North 464 534 28,300 -1,740 Descending Atlanta Center
01:35PM 36.5333 -81.7522 North 464 534 26,500 -1,440 Descending Atlanta Center
01:37PM 36.8064 -81.7292 North 454 522 24,000 -840 Descending Indianapolis Center
01:38PM 36.9331 -81.7186 North 457 526 24,000  Level Indianapolis Center
01:39PM 37.0567 -81.7089 North 449 517 24,000 -420 Level Indianapolis Center
01:40PM 37.1814 -81.6981 North 448 516 23,200 -1,260 Descending Indianapolis Center
01:41PM 37.3186 -81.6872 North 427 491 21,400 -1,620 Descending Indianapolis Center
01:42PM 37.4381 -81.6758 North 429 494 19,900 -1,680 Descending Indianapolis Center
01:43PM 37.5547 -81.6669 North 422 486 18,000 -1,980 Descending Indianapolis Center
01:44PM 37.6661 -81.6575 North 405 466 15,900 -2,400 Descending Indianapolis Center
01:45PM 37.7708 -81.6481 North 384 442 13,100 -2,280 Descending Indianapolis Center
01:46PM 37.8706 -81.6383 North 359 413 11,200 -1,560 Descending Indianapolis Center
01:47PM 37.9586 -81.5900 23° Northeast 362 417 10,000 -1,440 Descending Indianapolis Center
01:48PM 38.0319 -81.5314 32° Northeast 317 365 8,300 -1,620 Descending Indianapolis Center
01:49PM 38.1022 -81.4761 32° Northeast 300 345 6,700 -1,140 Descending Indianapolis Center
01:50PM 38.1858 -81.4167 29° Northeast 289 333 6,000 -360 Descending Indianapolis Center
01:51PM 38.2489 -81.3689 31° Northeast 269 310 6,000 -120 Level Indianapolis Center
01:52PM 38.3064 -81.3381 23° Northeast 238 274 5,800 -540 Descending Indianapolis Center
01:53PM 38.3647 -81.3508 350° North 216 249 5,000 -1,080 Descending Indianapolis Center
01:54PM 38.4247 -81.3794 340° North 224 258 3,700 -1,020 Descending Indianapolis Center
01:55PM 38.4819 -81.4169 333° Northwest 230 265 3,000 -540 Descending Indianapolis Center
01:56PM 38.4619 -81.4700 244° Southwest 196 226 2,600 -300 Descending Indianapolis Center
01:57PM 38.4314 -81.5142 229° Southwest 176 203 2,500 -420 Descending Indianapolis Center
01:58PM 38.4094 -81.5447 227° Southwest 138 159 1,800 -660 Descending Indianapolis Center
01:59PM 38.3900 -81.5744 230° Southwest 117 135 1,200 -600 Descending Indianapolis Center